createdAt,value
2022-11-14T00:00:00.248Z,5.10
2022-11-14T00:02:32.134Z,5.20
2022-11-14T00:05:01.680Z,5.06
2022-11-14T00:07:34.772Z,5.20
2022-11-14T00:10:01.628Z,5.00
2022-11-14T00:12:32.768Z,4.99
2022-11-14T00:14:59.325Z,4.95
2022-11-14T00:17:25.935Z,4.97
2022-11-14T00:19:54.949Z,5.06
2022-11-14T00:22:23.704Z,5.00
2022-11-14T00:24:50.277Z,5.19
2022-11-14T00:27:21.431Z,5.07
2022-11-14T00:29:47.919Z,4.96
2022-11-14T00:32:14.418Z,4.96
2022-11-14T00:34:43.364Z,5.15
2022-11-14T00:37:09.852Z,4.95
2022-11-14T00:39:38.432Z,4.89
2022-11-14T00:42:04.963Z,4.82
2022-11-14T00:44:31.463Z,4.76
2022-11-14T00:46:58.025Z,4.78
2022-11-14T00:49:26.740Z,4.81
2022-11-14T00:51:53.249Z,4.70
2022-11-14T00:54:19.749Z,4.74
2022-11-14T00:56:53.613Z,4.62
2022-11-14T00:59:20.148Z,4.64
2022-11-14T01:01:46.661Z,4.50
2022-11-14T01:04:15.408Z,4.63
2022-11-14T01:06:41.904Z,4.72
2022-11-14T01:09:11.105Z,4.60
2022-11-14T01:11:38.206Z,4.65
2022-11-14T01:14:10.372Z,4.61
2022-11-14T01:16:36.919Z,4.83
2022-11-14T01:19:04.227Z,4.90
2022-11-14T01:21:31.041Z,4.96
2022-11-14T01:23:57.539Z,4.75
2022-11-14T01:26:26.284Z,4.63
2022-11-14T01:28:58.165Z,4.49
2022-11-14T01:31:26.174Z,4.52
2022-11-14T01:33:53.987Z,4.61
2022-11-14T01:36:23.781Z,4.65
2022-11-14T01:38:54.302Z,4.74
2022-11-14T01:41:23.187Z,4.78
2022-11-14T01:43:51.969Z,4.55
2022-11-14T01:46:27.720Z,4.52
2022-11-14T01:48:56.344Z,4.50
2022-11-14T01:51:39.796Z,4.40
2022-11-14T01:54:16.608Z,4.40
2022-11-14T01:56:57.457Z,4.44
2022-11-14T01:59:34.458Z,4.53
2022-11-14T02:02:07.336Z,4.40
2022-11-14T02:04:39.133Z,4.34
2022-11-14T02:07:10.352Z,4.37
2022-11-14T02:09:38.938Z,4.34
2022-11-14T02:12:11.043Z,4.45
2022-11-14T02:14:40.367Z,4.60
2022-11-14T02:20:11.608Z,4.44
2022-11-14T02:22:40.680Z,4.30
2022-11-14T02:25:11.532Z,4.48
2022-11-14T02:27:41.837Z,4.38
2022-11-14T02:30:12.147Z,4.32
2022-11-14T02:35:25.618Z,4.42
2022-11-14T02:37:54.678Z,4.62
2022-11-14T02:40:21.411Z,4.69
2022-11-14T02:42:50.305Z,4.69
2022-11-14T02:45:16.954Z,4.68
2022-11-14T02:47:43.464Z,4.72
2022-11-14T02:50:10.371Z,4.73
2022-11-14T02:52:36.840Z,4.78
2022-11-14T02:55:06.788Z,4.77
2022-11-14T02:57:36.779Z,4.81
2022-11-14T03:00:07.701Z,4.52
2022-11-14T03:02:38.324Z,4.72
2022-11-14T03:05:07.859Z,4.73
2022-11-14T03:07:37.951Z,4.65
2022-11-14T03:10:07.488Z,4.28
2022-11-14T03:12:36.980Z,4.51
2022-11-14T03:15:08.026Z,4.57
2022-11-14T03:17:35.088Z,4.59
2022-11-14T03:20:02.065Z,4.60
2022-11-14T03:22:28.737Z,4.41
2022-11-14T03:24:57.704Z,4.43
2022-11-14T03:27:24.294Z,4.39
2022-11-14T03:29:55.581Z,4.30
2022-11-14T03:32:24.847Z,4.41
2022-11-14T03:34:51.291Z,4.44
2022-11-14T03:37:17.806Z,4.17
2022-11-14T03:39:44.357Z,3.97
2022-11-14T03:42:10.844Z,4.13
2022-11-14T03:44:37.556Z,4.17
2022-11-14T03:47:04.092Z,4.17
2022-11-14T03:49:30.714Z,4.02
2022-11-14T03:52:00.406Z,3.91
2022-11-14T03:54:29.433Z,3.74
2022-11-14T03:56:58.796Z,3.86
2022-11-14T03:59:25.175Z,3.84
2022-11-14T04:01:51.821Z,3.73
2022-11-14T04:04:20.569Z,3.82
2022-11-14T04:06:47.179Z,3.89
2022-11-14T04:09:13.834Z,3.56
2022-11-14T04:11:42.474Z,3.55
2022-11-14T04:14:12.243Z,3.72
2022-11-14T04:16:43.826Z,3.64
2022-11-14T04:19:12.647Z,3.71
2022-11-14T04:21:39.132Z,3.77
2022-11-14T04:24:10.941Z,3.97
2022-11-14T04:26:40.271Z,4.10
2022-11-14T04:29:09.254Z,3.99
2022-11-14T04:31:35.771Z,4.08
2022-11-14T04:34:04.602Z,4.18
2022-11-14T04:36:31.182Z,4.27
2022-11-14T04:39:00.521Z,4.05
2022-11-14T04:41:27.105Z,4.27
2022-11-14T04:43:53.624Z,4.33
2022-11-14T04:46:20.212Z,4.29
2022-11-14T04:48:46.720Z,4.29
2022-11-14T04:51:15.466Z,4.33
2022-11-14T04:53:41.971Z,4.32
2022-11-14T04:56:08.706Z,4.11
2022-11-14T04:58:40.135Z,4.28
2022-11-14T05:01:14.049Z,4.28
2022-11-14T05:03:43.019Z,4.09
2022-11-14T05:06:12.296Z,4.11
2022-11-14T05:08:38.880Z,4.19
2022-11-14T05:11:05.608Z,4.21
2022-11-14T05:13:34.396Z,4.34
2022-11-14T05:16:03.471Z,4.30
2022-11-14T05:18:30.209Z,4.34
2022-11-14T05:21:05.431Z,4.47
2022-11-14T05:23:32.344Z,4.62
2022-11-14T05:26:10.338Z,4.66
2022-11-14T05:28:36.911Z,4.77
2022-11-14T05:31:08.244Z,4.76
2022-11-14T05:33:35.443Z,4.72
2022-11-14T05:36:04.190Z,4.77
2022-11-14T05:38:33.530Z,4.79
2022-11-14T05:40:59.915Z,4.85
2022-11-14T05:43:29.666Z,4.90
2022-11-14T05:46:04.137Z,4.73
2022-11-14T05:48:34.430Z,4.68
2022-11-14T05:51:05.429Z,4.50
2022-11-14T05:53:34.795Z,4.55
2022-11-14T05:56:07.698Z,4.57
2022-11-14T05:58:35.404Z,4.56
2022-11-14T06:01:13.758Z,4.64
2022-11-14T06:03:44.515Z,4.64
2022-11-14T06:06:19.066Z,4.66
2022-11-14T06:08:47.857Z,4.53
2022-11-14T06:11:23.405Z,4.47
2022-11-14T06:13:50.018Z,4.37
2022-11-14T06:16:20.490Z,4.45
2022-11-14T06:18:47.689Z,4.47
2022-11-14T06:21:20.208Z,4.65
2022-11-14T06:23:48.922Z,4.76
2022-11-14T06:26:22.247Z,4.82
2022-11-14T06:28:52.595Z,4.84
2022-11-14T06:31:20.240Z,4.77
2022-11-14T06:33:52.115Z,4.89
2022-11-14T06:36:21.127Z,4.82
2022-11-14T06:38:50.037Z,4.84
2022-11-14T06:41:21.761Z,4.95
2022-11-14T06:43:51.293Z,5.03
2022-11-14T06:46:22.191Z,4.87
2022-11-14T06:48:49.755Z,4.81
2022-11-14T06:51:17.656Z,4.92
2022-11-14T06:53:44.704Z,4.85
2022-11-14T06:56:13.517Z,5.13
2022-11-14T06:58:44.643Z,5.18
2022-11-14T07:01:13.543Z,5.25
2022-11-14T07:03:43.717Z,5.25
2022-11-14T07:06:14.487Z,5.42
2022-11-14T07:08:48.403Z,5.47
2022-11-14T07:11:23.442Z,5.65
2022-11-14T07:13:53.339Z,5.87
2022-11-14T07:16:21.141Z,6.03
2022-11-14T07:18:52.530Z,5.98
2022-11-14T07:21:19.087Z,6.14
2022-11-14T07:23:45.615Z,6.21
2022-11-14T07:26:13.269Z,6.36
2022-11-14T07:28:51.814Z,6.51
2022-11-14T07:37:27.723Z,6.72
2022-11-14T07:40:19.375Z,6.76
2022-11-14T07:42:48.423Z,6.77
2022-11-14T07:48:00.226Z,6.76
2022-11-14T07:50:32.530Z,6.72
2022-11-14T07:53:01.606Z,6.90
2022-11-14T07:55:28.111Z,7.12
2022-11-14T08:02:22.983Z,7.25
2022-11-14T08:04:51.917Z,7.27
2022-11-14T08:07:27.858Z,7.37
2022-11-14T08:09:56.921Z,7.45
2022-11-14T08:12:25.675Z,7.58
2022-11-14T08:15:35.042Z,7.56
2022-11-14T08:18:06.372Z,7.68
2022-11-14T08:20:35.519Z,7.75
2022-11-14T08:23:04.449Z,7.64
2022-11-14T08:25:31.041Z,7.88
2022-11-14T08:27:57.572Z,7.88
2022-11-14T08:30:24.699Z,7.65
2022-11-14T08:32:51.650Z,7.85
2022-11-14T08:35:21.460Z,8.07
2022-11-14T08:38:03.638Z,8.11
2022-11-14T08:40:30.511Z,8.19
2022-11-14T08:43:31.007Z,8.25
2022-11-14T08:46:07.966Z,8.48
2022-11-14T08:48:36.846Z,8.32
2022-11-14T08:51:17.873Z,8.39
2022-11-14T08:53:49.337Z,8.55
2022-11-14T08:56:18.118Z,8.52
2022-11-14T08:58:49.942Z,8.69
2022-11-14T09:01:16.495Z,8.76
2022-11-14T09:03:43.429Z,8.86
2022-11-14T09:06:10.152Z,8.82
2022-11-14T09:08:39.126Z,8.81
2022-11-14T09:11:09.277Z,9.22
2022-11-14T09:13:41.323Z,9.28
2022-11-14T09:16:11.510Z,9.20
2022-11-14T09:18:38.448Z,9.19
2022-11-14T09:21:07.607Z,9.36
2022-11-14T09:23:36.972Z,9.30
2022-11-14T09:26:08.191Z,9.21
2022-11-14T09:28:35.200Z,9.26
2022-11-14T09:31:27.193Z,9.32
2022-11-14T09:33:53.870Z,9.37
2022-11-14T09:36:23.910Z,9.41
2022-11-14T09:38:56.171Z,9.40
2022-11-14T09:41:42.309Z,9.41
2022-11-14T09:44:31.890Z,9.40
2022-11-14T09:47:21.625Z,9.16
2022-11-14T09:53:54.084Z,9.32
2022-11-14T09:56:26.028Z,9.38
2022-11-14T09:58:55.713Z,9.10
2022-11-14T10:01:25.229Z,9.30
2022-11-14T10:04:10.661Z,9.44
2022-11-14T10:07:02.923Z,9.48
2022-11-14T10:09:54.893Z,9.69
2022-11-14T10:12:34.468Z,9.64
2022-11-14T10:15:41.808Z,9.79
2022-11-14T10:18:13.228Z,9.87
2022-11-14T10:20:47.479Z,9.91
2022-11-14T10:23:35.376Z,9.98
2022-11-14T10:26:14.815Z,9.93
2022-11-14T10:29:04.891Z,10.03
2022-11-14T10:31:46.493Z,10.11
2022-11-14T10:34:32.758Z,10.25
2022-11-14T10:37:32.753Z,10.49
2022-11-14T10:40:21.104Z,10.50
2022-11-14T10:42:56.874Z,10.50
2022-11-14T10:45:28.532Z,10.56
2022-11-14T10:48:00.087Z,10.53
2022-11-14T10:51:17.174Z,10.50
2022-11-14T10:54:00.785Z,10.30
2022-11-14T10:56:32.248Z,10.52
2022-11-14T10:58:58.827Z,10.71
2022-11-14T11:01:47.072Z,11.01
2022-11-14T11:04:30.641Z,10.90
2022-11-14T11:07:38.871Z,10.87
2022-11-14T11:10:24.974Z,10.49
2022-11-14T11:12:53.926Z,10.72
2022-11-14T11:15:22.265Z,11.02
2022-11-14T11:17:54.783Z,11.08
2022-11-14T11:20:37.249Z,11.14
2022-11-14T11:23:06.660Z,10.87
2022-11-14T11:25:36.400Z,11.16
2022-11-14T11:28:16.658Z,11.34
2022-11-14T11:31:18.721Z,11.37
2022-11-14T11:33:50.243Z,11.42
2022-11-14T11:42:07.602Z,11.39
2022-11-14T11:44:43.815Z,11.47
2022-11-14T11:47:15.460Z,11.59
2022-11-14T11:49:53.757Z,11.35
2022-11-14T11:52:30.070Z,11.54
2022-11-14T11:55:05.860Z,11.49
2022-11-14T11:57:58.661Z,11.53
2022-11-14T12:00:27.576Z,11.76
2022-11-14T12:02:57.978Z,11.46
2022-11-14T12:05:33.346Z,11.78
2022-11-14T12:08:27.622Z,11.78
2022-11-14T12:10:56.239Z,11.77
2022-11-14T12:13:44.451Z,12.08
2022-11-14T12:16:45.661Z,12.01
2022-11-14T12:19:33.842Z,12.07
2022-11-14T12:22:37.537Z,12.14
2022-11-14T12:25:36.747Z,11.88
2022-11-14T12:28:12.365Z,12.13
2022-11-14T12:30:41.600Z,12.20
2022-11-14T12:33:07.963Z,12.20
2022-11-14T12:35:37.016Z,12.13
2022-11-14T12:38:13.880Z,12.36
2022-11-14T12:40:51.437Z,12.33
2022-11-14T12:43:36.477Z,12.11
2022-11-14T12:46:14.204Z,12.24
2022-11-14T12:49:23.922Z,12.11
2022-11-14T12:52:29.404Z,12.43
2022-11-14T12:54:55.975Z,12.51
2022-11-14T12:57:50.228Z,12.18
2022-11-14T13:00:18.223Z,12.25
2022-11-14T13:02:51.018Z,12.16
2022-11-14T13:05:32.966Z,12.13
2022-11-14T13:08:15.585Z,12.23
2022-11-14T13:10:42.225Z,12.09
2022-11-14T13:13:28.324Z,12.18
2022-11-14T13:16:16.307Z,12.32
2022-11-14T13:19:29.256Z,12.16
2022-11-14T13:22:11.009Z,12.09
2022-11-14T13:24:57.631Z,12.06
2022-11-14T13:28:05.183Z,12.02
2022-11-14T13:31:01.788Z,12.21
2022-11-14T13:33:49.665Z,11.94
2022-11-14T13:36:34.651Z,12.06
2022-11-14T13:39:28.772Z,11.96
2022-11-14T13:42:16.858Z,11.48
2022-11-14T13:45:06.207Z,11.65
2022-11-14T13:47:44.985Z,11.82
2022-11-14T13:50:15.775Z,11.81
2022-11-14T13:52:45.265Z,11.78
2022-11-14T13:55:46.705Z,11.93
2022-11-14T13:58:39.570Z,11.90
2022-11-14T14:01:29.060Z,11.81
2022-11-14T14:04:34.240Z,11.68
2022-11-14T14:07:09.018Z,11.68
2022-11-14T14:09:58.705Z,11.65
2022-11-14T14:12:49.281Z,11.64
2022-11-14T14:15:44.433Z,11.52
2022-11-14T14:18:25.521Z,11.60
2022-11-14T14:21:12.247Z,11.57
2022-11-14T14:24:05.944Z,11.46
2022-11-14T14:26:44.543Z,11.52
2022-11-14T14:29:20.095Z,11.51
2022-11-14T14:32:24.900Z,11.29
2022-11-14T14:34:53.906Z,11.04
2022-11-14T14:37:23.913Z,11.18
2022-11-14T14:40:34.027Z,11.09
2022-11-14T14:43:05.699Z,11.20
2022-11-14T14:45:45.524Z,11.20
2022-11-14T14:51:39.791Z,11.08
2022-11-14T14:54:08.521Z,11.09
2022-11-14T14:56:35.180Z,10.65
2022-11-14T14:59:23.100Z,10.80
2022-11-14T15:01:52.452Z,10.85
2022-11-14T15:04:26.866Z,10.79
2022-11-14T15:06:57.478Z,10.67
2022-11-14T15:09:29.920Z,10.52
2022-11-14T15:11:59.349Z,10.50
2022-11-14T15:14:47.994Z,10.47
2022-11-14T15:17:15.648Z,10.32
2022-11-14T15:19:45.972Z,10.30
2022-11-14T15:22:15.563Z,10.27
2022-11-14T15:24:45.343Z,10.10
2022-11-14T15:27:16.767Z,10.39
2022-11-14T15:29:47.464Z,10.38
2022-11-14T15:32:27.947Z,10.48
2022-11-14T15:35:24.903Z,10.07
2022-11-14T15:42:11.195Z,9.65
2022-11-14T15:44:37.895Z,9.78
2022-11-14T15:47:10.851Z,9.71
2022-11-14T15:49:40.221Z,9.44
2022-11-14T15:52:20.096Z,9.40
2022-11-14T15:54:46.642Z,9.12
2022-11-14T15:57:19.259Z,9.36
2022-11-14T15:59:45.768Z,9.53
2022-11-14T16:02:18.186Z,9.38
2022-11-14T16:04:48.605Z,9.34
2022-11-14T16:07:20.106Z,9.42
2022-11-14T16:09:49.732Z,9.50
2022-11-14T16:12:17.704Z,9.49
2022-11-14T16:15:25.564Z,9.40
2022-11-14T16:18:05.551Z,9.39
2022-11-14T16:21:04.297Z,9.38
2022-11-14T16:23:31.071Z,9.34
2022-11-14T16:44:11.847Z,8.72
2022-11-14T16:46:45.736Z,8.68
2022-11-14T16:49:16.467Z,8.63
2022-11-14T16:51:49.832Z,8.74
2022-11-14T16:54:26.155Z,8.68
2022-11-14T16:56:55.110Z,8.70
2022-11-14T16:59:26.429Z,8.77
2022-11-14T17:01:55.316Z,8.66
2022-11-14T17:04:44.395Z,8.41
2022-11-14T17:07:12.324Z,8.23
2022-11-14T17:09:38.953Z,8.20
2022-11-14T17:14:49.310Z,8.09
2022-11-14T17:17:15.958Z,7.91
2022-11-14T17:19:47.931Z,8.04
2022-11-14T17:22:18.419Z,7.86
2022-11-14T17:24:47.392Z,7.87
2022-11-14T17:27:16.248Z,7.97
2022-11-14T17:29:46.644Z,7.89
2022-11-14T17:32:13.229Z,7.96
2022-11-14T17:34:42.225Z,8.02
2022-11-14T17:37:08.732Z,7.96
2022-11-14T17:39:35.267Z,7.88
2022-11-14T17:42:01.862Z,7.97
2022-11-14T17:44:30.801Z,8.02
2022-11-14T17:46:57.343Z,7.74
2022-11-14T17:49:23.868Z,7.75
2022-11-14T17:51:54.951Z,7.73
2022-11-14T17:54:26.252Z,7.45
2022-11-14T17:56:55.275Z,7.59
2022-11-14T17:59:24.286Z,7.61
2022-11-14T18:01:51.024Z,7.59
2022-11-14T18:04:17.670Z,7.64
2022-11-14T18:06:47.630Z,7.61
2022-11-14T18:09:14.729Z,7.56
2022-11-14T18:11:41.604Z,7.53
2022-11-14T18:14:08.250Z,7.53
2022-11-14T18:16:57.493Z,7.53
2022-11-14T18:19:21.497Z,7.17
2022-11-14T18:21:53.425Z,7.19
2022-11-14T18:24:23.680Z,7.33
2022-11-14T18:26:50.598Z,7.41
2022-11-14T18:29:17.868Z,7.34
2022-11-14T18:31:48.164Z,7.31
2022-11-14T18:34:16.897Z,7.29
2022-11-14T18:36:48.853Z,7.25
2022-11-14T18:39:17.739Z,7.28
2022-11-14T18:41:44.275Z,7.08
2022-11-14T18:44:10.866Z,7.10
2022-11-14T18:46:40.651Z,7.15
2022-11-14T18:49:07.630Z,7.13
2022-11-14T18:51:41.939Z,7.27
2022-11-14T18:54:14.004Z,7.25
2022-11-14T18:56:40.659Z,7.08
2022-11-14T18:59:08.296Z,7.05
2022-11-14T19:01:38.418Z,6.85
2022-11-14T19:04:09.794Z,6.91
2022-11-14T19:06:38.748Z,6.91
2022-11-14T19:09:11.631Z,6.85
2022-11-14T19:11:59.405Z,6.92
2022-11-14T19:14:26.037Z,6.71
2022-11-14T19:16:53.515Z,6.68
2022-11-14T19:19:20.248Z,6.75
2022-11-14T19:21:52.449Z,6.60
2022-11-14T19:24:21.342Z,6.70
2022-11-14T19:26:49.486Z,6.82
2022-11-14T19:29:16.167Z,6.88
2022-11-14T19:31:43.722Z,6.91
2022-11-14T19:34:21.502Z,6.58
2022-11-14T19:37:03.486Z,6.61
2022-11-14T19:39:31.057Z,6.40
2022-11-14T19:41:57.962Z,6.55
2022-11-14T19:44:26.791Z,6.59
2022-11-14T19:46:56.195Z,6.48
2022-11-14T19:49:27.837Z,6.66
2022-11-14T19:51:54.504Z,6.63
2022-11-14T19:54:21.491Z,6.55
2022-11-14T19:56:50.769Z,6.58
2022-11-14T19:59:22.916Z,6.59
2022-11-14T20:01:55.240Z,6.57
2022-11-14T20:04:22.335Z,6.47
2022-11-14T20:06:49.455Z,6.45
2022-11-14T20:09:19.426Z,6.17
2022-11-14T20:11:50.738Z,6.13
2022-11-14T20:14:17.481Z,5.83
2022-11-14T20:16:45.962Z,5.92
2022-11-14T20:19:14.810Z,6.16
2022-11-14T20:21:41.393Z,6.31
2022-11-14T20:24:11.071Z,6.20
2022-11-14T20:26:37.670Z,6.01
2022-11-14T20:29:09.750Z,5.95
2022-11-14T20:31:39.328Z,6.02
2022-11-14T20:34:10.496Z,5.94
2022-11-14T20:37:08.707Z,6.02
2022-11-14T20:39:25.978Z,5.97
2022-11-14T20:41:52.624Z,6.04
2022-11-14T20:44:19.417Z,6.11
2022-11-14T20:46:48.499Z,5.93
2022-11-14T20:49:15.153Z,5.97
2022-11-14T20:51:41.828Z,5.89
2022-11-14T20:54:09.229Z,5.68
2022-11-14T20:56:36.019Z,5.71
2022-11-14T20:59:07.343Z,5.69
2022-11-14T21:01:35.212Z,5.72
2022-11-14T21:04:10.062Z,5.87
2022-11-14T21:06:36.783Z,5.79
2022-11-14T21:09:05.670Z,5.77
2022-11-14T21:11:34.643Z,5.78
2022-11-14T21:14:01.771Z,5.75
2022-11-14T21:16:32.411Z,5.70
2022-11-14T21:18:59.685Z,5.92
2022-11-14T21:21:30.769Z,5.78
2022-11-14T21:23:57.970Z,5.65
2022-11-14T21:26:29.317Z,5.47
2022-11-14T21:28:58.553Z,5.66
2022-11-14T21:31:26.895Z,5.68
2022-11-14T21:34:01.966Z,5.70
2022-11-14T21:36:46.394Z,5.34
2022-11-14T21:39:17.737Z,5.26
2022-11-14T21:41:45.790Z,5.32
2022-11-14T21:44:16.839Z,5.30
2022-11-14T21:46:49.740Z,5.19
2022-11-14T21:49:19.245Z,5.21
2022-11-14T21:51:48.720Z,5.22
2022-11-14T21:54:56.627Z,5.17
2022-11-14T22:00:45.516Z,5.37
2022-11-14T22:03:36.366Z,5.44
2022-11-14T22:06:03.459Z,5.30
2022-11-14T22:08:32.287Z,5.38
2022-11-14T22:11:04.968Z,5.54
2022-11-14T22:13:31.815Z,5.41
2022-11-14T22:16:06.385Z,5.49
2022-11-14T22:18:35.273Z,5.57
2022-11-14T22:21:04.386Z,5.57
2022-11-14T22:23:33.398Z,5.59
2022-11-14T22:26:05.573Z,5.49
2022-11-14T22:28:32.483Z,5.49
2022-11-14T22:31:15.925Z,5.56
2022-11-14T22:33:46.839Z,5.44
2022-11-14T22:36:22.397Z,5.50
2022-11-14T22:38:54.781Z,5.41
2022-11-14T22:41:33.607Z,5.37
2022-11-14T22:44:02.926Z,5.17
2022-11-14T22:46:32.004Z,5.32
2022-11-14T22:49:08.260Z,5.21
2022-11-14T22:51:34.882Z,5.17
2022-11-14T22:54:01.661Z,5.12
2022-11-14T22:56:31.594Z,5.17
2022-11-14T22:58:59.473Z,5.29
2022-11-14T23:01:31.437Z,5.31
2022-11-14T23:04:00.348Z,5.23
2022-11-14T23:06:30.318Z,5.26
2022-11-14T23:08:59.226Z,5.34
2022-11-14T23:11:30.526Z,5.34
2022-11-14T23:14:01.448Z,5.37
2022-11-14T23:16:36.334Z,5.32
2022-11-14T23:19:04.551Z,5.26
2022-11-14T23:21:38.134Z,5.32
2022-11-14T23:24:08.679Z,5.30
2022-11-14T23:26:38.014Z,5.27
2022-11-14T23:29:04.810Z,5.48
2022-11-14T23:31:33.628Z,5.42
2022-11-14T23:34:00.240Z,5.21
2022-11-14T23:36:29.189Z,5.29
2022-11-14T23:38:55.948Z,5.14
2022-11-14T23:41:25.815Z,5.21
2022-11-14T23:43:52.788Z,5.20
2022-11-14T23:46:21.849Z,5.14
2022-11-14T23:48:50.880Z,5.31
2022-11-14T23:51:17.648Z,5.15
2022-11-14T23:53:44.666Z,5.30
2022-11-14T23:56:13.392Z,5.32
2022-11-14T23:58:50.331Z,5.46
